createdAt,value
2017-09-22T00:01:00.159Z,81.4
2017-09-22T00:02:21.647Z,80.7
2017-09-22T00:03:23.051Z,80.7
2017-09-22T00:04:44.560Z,81.4
2017-09-22T00:05:45.964Z,81.4
2017-09-22T00:07:07.446Z,81.3
2017-09-22T00:08:08.847Z,81.4
2017-09-22T00:09:30.356Z,80.7
2017-09-22T00:10:31.762Z,80.9
2017-09-22T00:11:53.246Z,80.9
2017-09-22T00:12:54.644Z,81.0
2017-09-22T00:14:16.156Z,80.9
2017-09-22T00:15:17.557Z,81.4
2017-09-22T00:16:39.046Z,81.4
2017-09-22T00:17:40.447Z,81.7
2017-09-22T00:19:01.956Z,81.6
2017-09-22T00:20:03.359Z,81.6
2017-09-22T00:21:24.848Z,81.4
2017-09-22T00:22:26.247Z,81.4
2017-09-22T00:23:47.771Z,80.9
2017-09-22T00:24:49.167Z,80.7
2017-09-22T00:26:10.653Z,80.9
2017-09-22T00:27:12.051Z,81.0
2017-09-22T00:28:33.545Z,81.0
2017-09-22T00:29:34.945Z,80.8
2017-09-22T00:30:56.453Z,80.8
2017-09-22T00:31:57.860Z,80.7
2017-09-22T00:33:19.349Z,80.6
2017-09-22T00:34:20.747Z,80.6
2017-09-22T00:35:42.258Z,80.8
2017-09-22T00:36:43.658Z,80.6
2017-09-22T00:38:05.152Z,80.5
2017-09-22T00:39:06.553Z,80.7
2017-09-22T00:40:28.059Z,80.9
2017-09-22T00:41:29.460Z,80.9
2017-09-22T00:42:50.950Z,80.7
2017-09-22T00:43:52.349Z,81.3
2017-09-22T00:45:13.856Z,81.3
2017-09-22T00:46:15.256Z,81.1
2017-09-22T00:47:36.749Z,80.9
2017-09-22T00:48:38.148Z,80.8
2017-09-22T00:49:59.656Z,80.6
2017-09-22T00:51:01.058Z,80.8
2017-09-22T00:52:22.545Z,81.0
2017-09-22T00:53:23.946Z,81.2
2017-09-22T00:54:45.453Z,81.0
2017-09-22T00:55:46.856Z,80.9
2017-09-22T00:57:08.343Z,81.2
2017-09-22T00:58:09.744Z,81.2
2017-09-22T00:59:31.251Z,80.8
2017-09-22T01:00:32.651Z,80.9
2017-09-22T01:01:54.143Z,81.2
2017-09-22T01:02:55.540Z,80.7
2017-09-22T01:04:17.046Z,80.3
2017-09-22T01:05:18.456Z,81.0
2017-09-22T01:06:39.947Z,80.9
2017-09-22T01:07:41.345Z,80.9
2017-09-22T01:09:02.835Z,80.9
2017-09-22T01:10:04.233Z,80.9
2017-09-22T01:11:25.751Z,81.0
2017-09-22T01:12:27.151Z,80.7
2017-09-22T01:13:48.638Z,81.3
2017-09-22T01:14:50.039Z,81.3
2017-09-22T01:16:12.540Z,81.3
2017-09-22T01:17:13.947Z,81.3
2017-09-22T01:18:35.434Z,81.3
2017-09-22T01:19:36.833Z,81.7
2017-09-22T01:20:58.343Z,81.3
2017-09-22T01:21:59.743Z,81.6
2017-09-22T01:23:21.231Z,81.3
2017-09-22T01:24:22.631Z,81.4
2017-09-22T01:25:44.145Z,81.3
2017-09-22T01:26:45.545Z,81.4
2017-09-22T01:28:07.031Z,81.4
2017-09-22T01:29:08.431Z,81.2
2017-09-22T01:30:29.938Z,81.0
2017-09-22T01:31:31.340Z,81.2
2017-09-22T01:32:52.827Z,81.4
2017-09-22T01:33:54.229Z,81.1
2017-09-22T01:35:15.742Z,81.3
2017-09-22T01:36:17.143Z,81.5
2017-09-22T01:37:38.630Z,81.3
2017-09-22T01:38:40.028Z,80.9
2017-09-22T01:40:01.540Z,81.1
2017-09-22T01:41:02.940Z,81.3
2017-09-22T01:42:24.428Z,81.3
2017-09-22T01:43:25.828Z,81.1
2017-09-22T01:44:47.339Z,81.7
2017-09-22T01:45:48.741Z,81.8
2017-09-22T01:47:10.222Z,81.3
2017-09-22T01:48:11.626Z,81.2
2017-09-22T01:49:33.146Z,81.1
2017-09-22T01:50:34.550Z,81.1
2017-09-22T01:51:56.040Z,81.1
2017-09-22T01:52:57.437Z,81.1
2017-09-22T01:54:18.927Z,81.5
2017-09-22T01:55:20.329Z,81.4
2017-09-22T01:56:41.839Z,81.3
2017-09-22T01:57:43.240Z,81.3
2017-09-22T01:59:04.740Z,81.6
2017-09-22T02:00:06.142Z,81.8
2017-09-22T02:01:27.651Z,81.4
2017-09-22T02:02:29.050Z,81.1
2017-09-22T02:03:50.539Z,81.5
2017-09-22T02:04:51.938Z,81.2
2017-09-22T02:06:13.448Z,81.0
2017-09-22T02:07:14.848Z,81.3
2017-09-22T02:08:36.338Z,81.8
2017-09-22T02:09:37.739Z,81.7
2017-09-22T02:10:59.245Z,82.2
2017-09-22T02:12:00.645Z,81.9
2017-09-22T02:13:22.138Z,82.0
2017-09-22T02:14:23.536Z,82.0
2017-09-22T02:15:45.044Z,81.8
2017-09-22T02:16:46.449Z,82.1
2017-09-22T02:18:07.933Z,81.0
2017-09-22T02:19:09.332Z,81.3
2017-09-22T02:20:30.838Z,81.3
2017-09-22T02:21:32.240Z,81.3
2017-09-22T02:22:53.731Z,81.1
2017-09-22T02:23:55.125Z,81.3
2017-09-22T02:25:16.634Z,81.3
2017-09-22T02:26:18.036Z,80.8
2017-09-22T02:27:39.520Z,80.7
2017-09-22T02:28:40.923Z,80.8
2017-09-22T02:30:02.435Z,81.2
2017-09-22T02:31:03.873Z,80.9
2017-09-22T02:32:25.368Z,81.0
2017-09-22T02:33:26.770Z,81.3
2017-09-22T02:34:48.257Z,81.4
2017-09-22T02:35:49.655Z,81.2
2017-09-22T02:37:11.173Z,81.4
2017-09-22T02:38:12.571Z,81.4
2017-09-22T02:39:34.055Z,81.2
2017-09-22T02:40:35.454Z,81.5
2017-09-22T02:41:56.965Z,81.1
2017-09-22T02:42:58.369Z,81.4
2017-09-22T02:44:19.855Z,81.3
2017-09-22T02:45:21.253Z,82.1
2017-09-22T02:46:42.767Z,81.9
2017-09-22T02:47:44.167Z,81.4
2017-09-22T02:49:05.655Z,81.2
2017-09-22T02:50:07.053Z,81.3
2017-09-22T02:51:28.562Z,81.3
2017-09-22T02:52:29.967Z,81.7
2017-09-22T02:53:51.449Z,81.4
2017-09-22T02:54:52.848Z,81.6
2017-09-22T02:56:14.355Z,81.6
2017-09-22T02:57:15.755Z,81.6
2017-09-22T02:58:37.242Z,80.8
2017-09-22T02:59:38.639Z,81.6
2017-09-22T03:01:00.149Z,81.6
2017-09-22T03:02:01.548Z,82.0
2017-09-22T03:03:23.031Z,81.6
2017-09-22T03:04:24.430Z,82.1
2017-09-22T03:05:45.941Z,81.8
2017-09-22T03:06:47.342Z,81.7
2017-09-22T03:08:08.826Z,81.9
2017-09-22T03:09:10.226Z,82.0
2017-09-22T03:10:31.736Z,81.2
2017-09-22T03:11:33.137Z,81.2
2017-09-22T03:12:54.621Z,81.2
2017-09-22T03:13:56.019Z,81.5
2017-09-22T03:15:17.512Z,81.8
2017-09-22T03:16:18.909Z,81.7
2017-09-22T03:17:40.417Z,82.0
2017-09-22T03:18:41.818Z,81.9
2017-09-22T03:20:03.314Z,81.9
2017-09-22T03:21:04.706Z,81.8
2017-09-22T03:22:26.213Z,82.0
2017-09-22T03:23:27.611Z,81.8
2017-09-22T03:24:49.099Z,81.7
2017-09-22T03:25:50.499Z,81.8
2017-09-22T03:27:12.004Z,81.7
2017-09-22T03:28:13.410Z,81.7
2017-09-22T03:29:34.891Z,81.9
2017-09-22T03:30:36.290Z,81.5
2017-09-22T03:31:57.802Z,81.6
2017-09-22T03:32:59.197Z,81.9
2017-09-22T03:34:20.682Z,81.9
2017-09-22T03:35:22.081Z,82.0
2017-09-22T03:36:43.591Z,82.1
2017-09-22T03:37:44.991Z,82.1
2017-09-22T03:39:06.476Z,82.2
2017-09-22T03:40:07.871Z,82.6
2017-09-22T03:41:29.375Z,82.3
2017-09-22T03:42:30.806Z,82.0
2017-09-22T03:43:52.297Z,82.4
2017-09-22T03:44:53.697Z,82.6
2017-09-22T03:46:15.209Z,82.4
2017-09-22T03:47:16.630Z,82.6
2017-09-22T03:48:38.124Z,82.6
2017-09-22T03:49:39.520Z,82.6
2017-09-22T03:51:01.026Z,82.6
2017-09-22T03:52:02.426Z,82.8
2017-09-22T03:53:23.915Z,83.3
2017-09-22T03:54:25.314Z,83.0
2017-09-22T03:55:46.823Z,83.3
2017-09-22T03:56:48.220Z,82.5
2017-09-22T03:58:09.715Z,82.3
2017-09-22T03:59:11.112Z,82.4
2017-09-22T04:00:32.601Z,82.7
2017-09-22T04:01:34.002Z,82.6
2017-09-22T04:02:55.506Z,82.2
2017-09-22T04:03:56.940Z,82.4
2017-09-22T04:05:18.396Z,82.5
2017-09-22T04:06:19.791Z,82.4
2017-09-22T04:07:41.303Z,82.6
2017-09-22T04:08:42.699Z,82.6
2017-09-22T04:10:04.183Z,82.6
2017-09-22T04:11:05.585Z,82.6
2017-09-22T04:12:27.092Z,82.7
2017-09-22T04:13:28.492Z,82.8
2017-09-22T04:14:49.978Z,82.3
2017-09-22T04:15:51.376Z,82.6
2017-09-22T04:17:12.882Z,82.4
2017-09-22T04:18:14.284Z,82.4
2017-09-22T04:19:35.774Z,82.8
2017-09-22T04:20:37.198Z,82.9
2017-09-22T04:21:58.699Z,82.5
2017-09-22T04:23:00.100Z,82.3
2017-09-22T04:24:21.586Z,82.4
2017-09-22T04:25:22.982Z,82.4
2017-09-22T04:26:44.490Z,82.6
2017-09-22T04:27:45.888Z,82.4
2017-09-22T04:29:07.373Z,82.4
2017-09-22T04:30:08.773Z,82.4
2017-09-22T04:31:30.280Z,82.7
2017-09-22T04:32:31.680Z,82.4
2017-09-22T04:33:53.165Z,82.2
2017-09-22T04:34:55.906Z,82.3
2017-09-22T04:36:17.423Z,82.2
2017-09-22T04:37:18.824Z,82.5
2017-09-22T04:38:40.308Z,82.6
2017-09-22T04:39:41.705Z,82.5
2017-09-22T04:41:03.199Z,82.7
2017-09-22T04:42:04.598Z,82.5
2017-09-22T04:43:26.105Z,82.5
2017-09-22T04:44:27.506Z,82.6
2017-09-22T04:45:49.001Z,82.6
2017-09-22T04:46:50.399Z,82.6
2017-09-22T04:48:11.908Z,82.2
2017-09-22T04:49:13.724Z,82.1
2017-09-22T04:50:35.215Z,82.3
2017-09-22T04:51:36.611Z,82.2
2017-09-22T04:52:58.121Z,82.6
2017-09-22T04:53:59.523Z,82.4
2017-09-22T04:55:21.009Z,82.6
2017-09-22T04:56:22.404Z,82.4
2017-09-22T04:57:43.913Z,82.2
2017-09-22T04:58:45.314Z,82.2
2017-09-22T05:00:06.810Z,81.9
2017-09-22T05:01:08.211Z,82.2
2017-09-22T05:02:29.715Z,82.0
2017-09-22T05:03:31.117Z,81.8
2017-09-22T05:04:52.601Z,81.9
2017-09-22T05:05:54.038Z,81.7
2017-09-22T05:07:15.699Z,81.9
2017-09-22T05:08:17.100Z,81.7
2017-09-22T05:09:38.592Z,81.6
2017-09-22T05:10:39.993Z,81.7
2017-09-22T05:12:01.510Z,81.4
2017-09-22T05:13:02.912Z,81.9
2017-09-22T05:14:24.401Z,81.5
2017-09-22T05:15:25.803Z,81.6
2017-09-22T05:16:47.322Z,81.1
2017-09-22T05:17:48.726Z,80.9
2017-09-22T05:19:10.218Z,81.3
2017-09-22T05:20:11.620Z,81.6
2017-09-22T05:21:33.137Z,81.8
2017-09-22T05:22:34.541Z,81.3
2017-09-22T05:23:56.034Z,81.0
2017-09-22T05:24:57.434Z,80.9
2017-09-22T05:26:18.929Z,81.3
2017-09-22T05:27:20.332Z,80.9
2017-09-22T05:28:41.844Z,81.3
2017-09-22T05:29:43.249Z,81.3
2017-09-22T05:31:04.788Z,80.6
2017-09-22T05:32:06.214Z,80.8
2017-09-22T05:33:27.704Z,80.6
2017-09-22T05:34:29.105Z,80.5
2017-09-22T05:35:50.597Z,80.7
2017-09-22T05:36:52.004Z,80.7
2017-09-22T05:38:13.512Z,80.4
2017-09-22T05:39:14.916Z,80.5
2017-09-22T05:40:36.412Z,80.6
2017-09-22T05:41:37.813Z,80.6
2017-09-22T05:42:59.323Z,80.7
2017-09-22T05:44:00.728Z,80.6
2017-09-22T05:45:22.222Z,80.4
2017-09-22T05:46:23.626Z,80.7
2017-09-22T05:47:45.134Z,80.7
2017-09-22T05:48:46.537Z,80.3
2017-09-22T05:50:08.032Z,80.3
2017-09-22T05:51:09.442Z,80.4
2017-09-22T05:52:30.956Z,79.9
2017-09-22T05:53:32.361Z,80.1
2017-09-22T05:54:53.856Z,80.3
2017-09-22T05:55:55.264Z,80.3
2017-09-22T05:57:16.781Z,79.7
2017-09-22T05:58:18.184Z,80.1
2017-09-22T05:59:39.681Z,79.9
2017-09-22T06:00:41.084Z,80.1
2017-09-22T06:02:02.598Z,80.2
2017-09-22T06:03:04.005Z,80.5
2017-09-22T06:04:25.500Z,79.9
2017-09-22T06:05:26.903Z,80.2
2017-09-22T06:06:48.399Z,79.9
2017-09-22T06:07:49.802Z,80.0
2017-09-22T06:09:11.322Z,79.3
2017-09-22T06:10:12.731Z,78.2
2017-09-22T06:11:34.220Z,77.9
2017-09-22T06:12:35.625Z,77.1
2017-09-22T06:13:57.140Z,76.3
2017-09-22T06:14:58.546Z,75.8
2017-09-22T06:16:20.053Z,74.5
2017-09-22T06:17:21.460Z,74.7
2017-09-22T06:18:42.975Z,74.7
2017-09-22T06:19:44.381Z,75.2
2017-09-22T06:21:05.877Z,74.3
2017-09-22T06:22:07.282Z,75.1
2017-09-22T06:23:28.800Z,75.1
2017-09-22T06:24:30.209Z,74.3
2017-09-22T06:25:51.705Z,73.9
2017-09-22T06:26:53.109Z,74.2
2017-09-22T06:28:14.624Z,74.4
2017-09-22T06:29:16.031Z,73.9
2017-09-22T06:30:37.531Z,72.4
2017-09-22T06:31:38.935Z,72.3
2017-09-22T06:33:00.452Z,72.2
2017-09-22T06:34:01.860Z,72.4
2017-09-22T06:35:23.353Z,71.8
2017-09-22T06:36:24.762Z,72.5
2017-09-22T06:37:46.276Z,73.2
2017-09-22T06:38:47.682Z,73.6
2017-09-22T06:40:09.176Z,75.1
2017-09-22T06:41:10.582Z,74.3
2017-09-22T06:42:32.108Z,74.5
2017-09-22T06:43:33.513Z,73.7
2017-09-22T06:44:55.014Z,74.3
2017-09-22T06:45:56.419Z,74.5
2017-09-22T06:47:17.917Z,75.1
2017-09-22T06:48:19.325Z,74.7
2017-09-22T06:49:40.837Z,75.0
2017-09-22T06:50:42.249Z,74.7
2017-09-22T06:52:03.743Z,74.9
2017-09-22T06:53:05.149Z,74.9
2017-09-22T06:54:26.669Z,75.8
2017-09-22T06:55:28.105Z,75.2
2017-09-22T06:56:49.570Z,75.0
2017-09-22T06:57:50.975Z,75.1
2017-09-22T06:59:12.496Z,75.1
2017-09-22T07:00:13.904Z,75.9
2017-09-22T07:01:35.403Z,75.1
2017-09-22T07:02:36.809Z,75.0
2017-09-22T07:03:58.325Z,75.1
2017-09-22T07:04:59.732Z,75.4
2017-09-22T07:06:21.230Z,75.6
2017-09-22T07:07:22.638Z,75.1
2017-09-22T07:08:44.153Z,73.7
2017-09-22T07:09:45.564Z,74.1
2017-09-22T07:11:07.062Z,74.3
2017-09-22T07:12:08.470Z,74.1
2017-09-22T07:13:29.986Z,74.1
2017-09-22T07:14:31.398Z,73.6
2017-09-22T07:15:52.901Z,73.7
2017-09-22T07:16:54.308Z,73.9
2017-09-22T07:18:15.822Z,73.5
2017-09-22T07:19:17.235Z,73.7
2017-09-22T07:20:38.734Z,73.7
2017-09-22T07:21:40.179Z,74.2
2017-09-22T07:23:01.698Z,75.2
2017-09-22T07:24:03.107Z,74.0
2017-09-22T07:25:24.611Z,74.1
2017-09-22T07:26:26.015Z,73.7
2017-09-22T07:27:47.537Z,74.3
2017-09-22T07:28:48.951Z,73.6
2017-09-22T07:30:10.448Z,74.0
2017-09-22T07:31:11.859Z,73.5
2017-09-22T07:32:33.361Z,73.0
2017-09-22T07:33:34.770Z,72.7
2017-09-22T07:34:56.287Z,72.6
2017-09-22T07:35:57.696Z,73.1
2017-09-22T07:37:19.191Z,72.7
2017-09-22T07:38:20.599Z,72.9
2017-09-22T07:39:42.129Z,73.0
2017-09-22T07:40:43.537Z,72.3
2017-09-22T07:42:05.052Z,72.4
2017-09-22T07:43:06.547Z,72.7
2017-09-22T07:44:28.069Z,72.4
2017-09-22T07:45:29.473Z,72.4
2017-09-22T07:46:50.973Z,72.3
2017-09-22T07:47:52.396Z,72.2
2017-09-22T07:49:14.326Z,72.3
2017-09-22T07:50:15.745Z,72.4
2017-09-22T07:51:37.253Z,73.0
2017-09-22T07:52:38.654Z,72.8
2017-09-22T07:54:00.174Z,72.4
2017-09-22T07:55:01.583Z,73.3
2017-09-22T07:56:23.116Z,73.5
2017-09-22T07:57:24.524Z,73.1
2017-09-22T07:58:46.047Z,73.1
2017-09-22T07:59:47.455Z,73.0
2017-09-22T08:01:08.957Z,73.4
2017-09-22T08:02:10.363Z,72.9
2017-09-22T08:03:31.881Z,72.7
2017-09-22T08:04:33.288Z,72.8
2017-09-22T08:05:54.791Z,73.4
2017-09-22T08:06:56.197Z,73.9
2017-09-22T08:08:17.723Z,74.0
2017-09-22T08:09:19.129Z,73.6
2017-09-22T08:10:40.631Z,73.5
2017-09-22T08:11:42.152Z,72.7
2017-09-22T08:13:04.364Z,72.8
2017-09-22T08:14:05.744Z,72.4
2017-09-22T08:15:27.261Z,71.9
2017-09-22T08:16:28.671Z,71.9
2017-09-22T08:17:50.178Z,72.3
2017-09-22T08:18:51.586Z,72.1
2017-09-22T08:20:13.107Z,72.3
2017-09-22T08:21:14.513Z,72.0
2017-09-22T08:22:36.052Z,72.3
2017-09-22T08:23:37.459Z,71.9
2017-09-22T08:24:58.981Z,72.1
2017-09-22T08:26:00.390Z,71.9
2017-09-22T08:27:21.893Z,71.7
2017-09-22T08:28:23.301Z,71.5
2017-09-22T08:29:44.823Z,71.4
2017-09-22T08:30:46.230Z,72.4
2017-09-22T08:32:07.734Z,72.3
2017-09-22T08:33:09.138Z,72.1
2017-09-22T08:34:30.659Z,72.3
2017-09-22T08:35:32.068Z,72.3
2017-09-22T08:36:53.571Z,71.7
2017-09-22T08:37:54.977Z,71.7
2017-09-22T08:39:16.505Z,72.1
2017-09-22T08:40:17.914Z,72.0
2017-09-22T08:41:39.424Z,71.3
2017-09-22T08:42:40.831Z,71.5
2017-09-22T08:44:02.352Z,71.4
2017-09-22T08:45:03.767Z,70.1
2017-09-22T08:46:25.264Z,71.2
2017-09-22T08:47:26.671Z,70.5
2017-09-22T08:48:48.198Z,69.6
2017-09-22T08:49:49.609Z,69.5
2017-09-22T08:51:11.119Z,68.7
2017-09-22T08:52:12.525Z,70.0
2017-09-22T08:53:34.047Z,69.2
2017-09-22T08:54:35.454Z,69.2
2017-09-22T08:55:57.450Z,70.4
2017-09-22T08:56:58.862Z,69.7
2017-09-22T08:58:20.361Z,70.0
2017-09-22T08:59:21.767Z,69.4
2017-09-22T09:00:43.785Z,69.5
2017-09-22T09:01:45.192Z,68.9
2017-09-22T09:03:07.199Z,68.0
2017-09-22T09:04:08.609Z,67.9
2017-09-22T09:05:30.133Z,67.2
2017-09-22T09:06:31.540Z,66.0
2017-09-22T09:07:53.044Z,66.7
2017-09-22T09:08:54.450Z,66.4
2017-09-22T09:10:15.985Z,65.6
2017-09-22T09:11:17.395Z,65.9
2017-09-22T09:12:38.906Z,65.4
2017-09-22T09:13:40.312Z,62.8
2017-09-22T09:15:01.835Z,63.3
2017-09-22T09:16:03.245Z,62.7
2017-09-22T09:17:24.749Z,63.5
2017-09-22T09:18:26.157Z,64.3
2017-09-22T09:19:47.685Z,64.3
2017-09-22T09:20:49.091Z,64.3
2017-09-22T09:22:10.594Z,63.3
2017-09-22T09:23:12.128Z,63.1
2017-09-22T09:24:33.650Z,62.7
2017-09-22T09:25:35.061Z,62.8
2017-09-22T09:26:56.562Z,60.9
2017-09-22T09:27:57.973Z,60.6
2017-09-22T09:29:19.495Z,60.3
2017-09-22T09:30:20.905Z,60.3
2017-09-22T09:31:42.415Z,60.9
2017-09-22T09:32:43.822Z,61.2
2017-09-22T09:34:05.343Z,61.1
2017-09-22T09:35:06.754Z,61.3
2017-09-22T09:36:28.258Z,60.6
2017-09-22T09:37:29.667Z,60.8
2017-09-22T09:38:51.204Z,60.9
2017-09-22T09:39:52.613Z,61.9
2017-09-22T09:41:14.125Z,62.1
2017-09-22T09:42:15.534Z,62.0
2017-09-22T09:43:37.037Z,60.3
2017-09-22T09:44:38.445Z,60.1
2017-09-22T09:45:59.968Z,62.2
2017-09-22T09:47:01.380Z,61.4
2017-09-22T09:48:22.887Z,61.2
2017-09-22T09:49:24.299Z,62.4
2017-09-22T09:50:45.821Z,60.8
2017-09-22T09:51:47.232Z,60.6
2017-09-22T09:53:08.735Z,60.3
2017-09-22T09:54:10.145Z,61.0
2017-09-22T09:55:31.667Z,60.6
2017-09-22T09:56:33.075Z,60.5
2017-09-22T09:57:54.580Z,59.9
2017-09-22T09:58:55.994Z,60.5
2017-09-22T10:00:17.516Z,60.3
2017-09-22T10:01:18.923Z,60.4
2017-09-22T10:02:40.428Z,60.2
2017-09-22T10:03:41.836Z,60.2
2017-09-22T10:05:03.364Z,60.6
2017-09-22T10:06:04.773Z,60.5
2017-09-22T10:07:26.280Z,59.8
2017-09-22T10:08:27.688Z,59.8
2017-09-22T10:09:49.206Z,60.2
2017-09-22T10:10:50.622Z,60.5
2017-09-22T10:12:12.614Z,60.0
2017-09-22T10:13:14.022Z,60.2
2017-09-22T14:42:34.323Z,55.2
2017-09-22T14:43:35.730Z,55.0
2017-09-22T14:44:57.250Z,55.0
2017-09-22T14:45:58.664Z,56.0
2017-09-22T14:47:20.215Z,57.1
2017-09-22T14:48:21.629Z,56.5
2017-09-22T14:49:43.155Z,56.5
2017-09-22T14:50:44.565Z,56.5
2017-09-22T14:52:06.128Z,56.0
2017-09-22T14:53:07.534Z,57.0
2017-09-22T14:54:29.055Z,56.5
2017-09-22T14:55:30.606Z,55.9
2017-09-22T14:56:52.230Z,56.7
2017-09-22T14:57:54.149Z,56.3
2017-09-22T14:59:15.675Z,56.3
2017-09-22T15:00:17.090Z,56.1
2017-09-22T15:01:38.621Z,56.6
2017-09-22T15:02:40.041Z,56.0
2017-09-22T15:04:01.593Z,56.3
2017-09-22T15:05:03.007Z,56.8
2017-09-22T15:06:26.062Z,58.1
2017-09-22T15:07:27.476Z,57.8
2017-09-22T15:08:49.316Z,57.2
2017-09-22T15:09:50.734Z,57.3
2017-09-22T15:11:12.271Z,57.1
2017-09-22T15:12:13.683Z,57.7
2017-09-22T15:13:35.243Z,56.4
2017-09-22T15:14:36.676Z,57.0
2017-09-22T15:15:58.684Z,56.2
2017-09-22T15:17:00.097Z,56.6
2017-09-22T15:18:21.653Z,56.0
2017-09-22T15:19:23.069Z,55.1
2017-09-22T15:20:44.588Z,55.5
2017-09-22T15:21:46.002Z,55.9
2017-09-22T15:23:07.580Z,56.2
2017-09-22T15:24:08.994Z,55.7
2017-09-22T15:25:30.592Z,56.1
2017-09-22T15:26:32.006Z,56.2
2017-09-22T15:27:54.073Z,56.8
2017-09-22T15:28:55.486Z,57.1
2017-09-22T15:30:17.004Z,58.0
2017-09-22T15:31:18.418Z,57.6
2017-09-22T15:32:39.974Z,56.2
2017-09-22T15:33:41.394Z,57.2
2017-09-22T15:35:02.930Z,56.8
2017-09-22T15:36:04.347Z,57.9
2017-09-22T15:37:26.078Z,58.3
2017-09-22T15:38:28.178Z,57.7
2017-09-22T15:39:49.881Z,58.0
2017-09-22T15:40:51.350Z,58.4
2017-09-22T15:42:13.727Z,57.8
2017-09-22T15:43:15.230Z,58.0
2017-09-22T15:44:37.275Z,57.8
2017-09-22T15:45:38.793Z,57.8
2017-09-22T15:47:00.839Z,57.4
2017-09-22T15:48:02.256Z,58.1
2017-09-22T15:49:23.814Z,58.3
2017-09-22T15:50:25.400Z,58.2
2017-09-22T15:51:46.953Z,57.8
2017-09-22T15:52:48.354Z,58.3
2017-09-22T15:54:09.979Z,56.7
2017-09-22T15:55:11.393Z,57.0
2017-09-22T15:56:32.975Z,57.4
2017-09-22T15:57:34.450Z,58.0
2017-09-22T15:58:56.023Z,58.8
2017-09-22T15:59:57.500Z,58.5
2017-09-22T16:01:19.087Z,58.3
2017-09-22T16:02:20.463Z,58.8
2017-09-22T16:03:42.007Z,58.1
2017-09-22T16:04:43.413Z,58.6
2017-09-22T16:06:04.951Z,58.1
2017-09-22T16:07:06.365Z,58.0
2017-09-22T16:08:27.923Z,58.1
2017-09-22T16:09:29.339Z,58.2
2017-09-22T16:10:50.857Z,57.7
2017-09-22T16:11:52.270Z,58.1
2017-09-22T16:13:13.864Z,58.5
2017-09-22T16:14:15.457Z,58.3
2017-09-22T16:15:41.981Z,58.2
2017-09-22T16:16:43.390Z,58.3
2017-09-22T16:18:05.466Z,58.5
2017-09-22T16:19:07.241Z,58.5
2017-09-22T16:20:28.755Z,58.2
2017-09-22T16:21:30.167Z,58.3
2017-09-22T16:22:51.769Z,59.1
2017-09-22T16:23:53.182Z,59.1
2017-09-22T16:25:14.812Z,58.3
2017-09-22T16:26:16.261Z,59.5
2017-09-22T16:27:37.958Z,59.3
2017-09-22T16:28:39.367Z,59.4
2017-09-22T16:30:00.933Z,59.8
2017-09-22T16:31:02.378Z,59.1
2017-09-22T16:32:23.984Z,58.9
2017-09-22T16:33:25.396Z,58.6
2017-09-22T16:34:47.120Z,59.4
2017-09-22T16:35:48.526Z,59.7
2017-09-22T16:37:10.067Z,59.4
2017-09-22T16:38:11.477Z,60.8
2017-09-22T16:39:33.042Z,60.3
2017-09-22T16:40:34.674Z,60.3
2017-09-22T16:41:56.686Z,61.2
2017-09-22T16:42:58.097Z,61.4
2017-09-22T16:44:19.669Z,60.8
2017-09-22T16:45:21.403Z,60.6
2017-09-22T16:46:42.999Z,60.6
2017-09-22T16:47:44.441Z,60.6
2017-09-22T16:49:05.968Z,61.2
2017-09-22T16:50:07.394Z,61.3
2017-09-22T16:51:28.913Z,61.4
2017-09-22T16:52:30.323Z,61.3
2017-09-22T16:53:51.845Z,62.1
2017-09-22T16:54:53.255Z,61.6
2017-09-22T16:56:14.766Z,61.9
2017-09-22T16:57:16.176Z,63.1
2017-09-22T16:58:37.714Z,62.2
2017-09-22T16:59:39.119Z,61.9
2017-09-22T17:01:00.672Z,62.3
2017-09-22T17:02:02.103Z,62.6
2017-09-22T17:03:23.621Z,63.1
2017-09-22T17:04:25.029Z,63.7
2017-09-22T17:05:46.534Z,63.8
2017-09-22T17:06:47.944Z,63.6
2017-09-22T17:08:09.473Z,63.7
2017-09-22T17:09:10.881Z,63.4
2017-09-22T17:10:32.386Z,63.7
2017-09-22T17:11:33.795Z,64.1
2017-09-22T17:12:55.322Z,64.2
2017-09-22T17:13:56.729Z,64.1
2017-09-22T17:15:18.232Z,64.1
2017-09-22T17:16:19.643Z,64.3
2017-09-22T17:17:41.145Z,64.6
2017-09-22T17:18:42.555Z,63.9
2017-09-22T17:20:04.587Z,63.7
2017-09-22T17:21:06.006Z,64.0
2017-09-22T17:22:27.511Z,64.0
2017-09-22T17:23:28.920Z,64.2
2017-09-22T17:24:51.953Z,64.1
2017-09-22T17:25:53.359Z,64.9
2017-09-22T17:27:15.355Z,65.5
2017-09-22T17:28:16.760Z,64.2
2017-09-22T17:29:38.457Z,64.4
2017-09-22T17:30:39.861Z,64.9
2017-09-22T17:32:01.462Z,64.7
2017-09-22T17:33:02.861Z,64.4
2017-09-22T17:34:24.872Z,64.4
2017-09-22T17:35:26.278Z,64.8
2017-09-22T17:36:47.783Z,64.9
2017-09-22T17:37:49.186Z,65.1
2017-09-22T17:39:11.209Z,65.5
2017-09-22T17:40:12.616Z,65.9
2017-09-22T17:41:34.119Z,65.8
2017-09-22T17:42:35.525Z,66.2
2017-09-22T17:43:57.044Z,65.8
2017-09-22T17:44:58.455Z,65.8
2017-09-22T17:46:19.956Z,65.7
2017-09-22T17:47:21.358Z,66.0
2017-09-22T17:48:42.922Z,65.8
2017-09-22T17:49:44.325Z,65.8
2017-09-22T17:51:05.970Z,65.7
2017-09-22T17:52:07.367Z,67.1
2017-09-22T17:53:28.887Z,66.8
2017-09-22T17:54:30.290Z,66.8
2017-09-22T17:55:51.790Z,66.9
2017-09-22T17:56:53.195Z,66.2
2017-09-22T17:58:14.718Z,65.8
2017-09-22T17:59:16.125Z,66.0
2017-09-22T18:00:37.911Z,65.8
2017-09-22T18:01:39.316Z,65.8
2017-09-22T18:03:01.312Z,66.0
2017-09-22T18:04:02.716Z,65.9
2017-09-22T18:05:24.241Z,66.0
2017-09-22T18:06:25.646Z,66.1
2017-09-22T18:07:47.147Z,67.0
2017-09-22T18:08:48.552Z,67.0
2017-09-22T18:10:10.076Z,67.4
2017-09-22T18:11:11.482Z,67.8
2017-09-22T18:12:32.981Z,68.0
2017-09-22T18:13:34.384Z,67.9
2017-09-22T18:14:55.910Z,68.1
2017-09-22T18:15:57.313Z,69.0
2017-09-22T18:17:18.818Z,68.8
2017-09-22T18:18:20.223Z,69.0
2017-09-22T18:19:41.743Z,69.7
2017-09-22T18:20:43.153Z,69.5
2017-09-22T18:22:04.653Z,69.8
2017-09-22T18:23:06.058Z,69.8
2017-09-22T18:24:27.582Z,70.1
2017-09-22T18:25:28.991Z,69.7
2017-09-22T18:26:50.488Z,69.0
2017-09-22T18:27:51.892Z,69.6
2017-09-22T18:29:13.416Z,69.8
2017-09-22T18:30:14.843Z,69.7
2017-09-22T18:31:36.350Z,70.0
2017-09-22T18:32:37.751Z,69.8
2017-09-22T18:33:59.587Z,70.2
2017-09-22T18:35:01.000Z,70.2
2017-09-22T18:36:22.500Z,70.3
2017-09-22T18:37:23.906Z,70.5
2017-09-22T18:38:45.448Z,70.2
2017-09-22T18:39:46.852Z,70.2
2017-09-22T18:41:08.354Z,70.9
2017-09-22T18:42:09.959Z,70.7
2017-09-22T18:43:31.964Z,71.2
2017-09-22T18:44:33.369Z,71.7
2017-09-22T18:45:54.891Z,71.3
2017-09-22T18:46:56.345Z,71.9
2017-09-22T18:48:17.848Z,71.6
2017-09-22T18:49:19.257Z,71.7
2017-09-22T18:50:41.810Z,71.5
2017-09-22T18:51:43.215Z,71.9
2017-09-22T18:53:04.724Z,71.8
2017-09-22T18:54:06.128Z,71.7
2017-09-22T18:55:28.137Z,72.3
2017-09-22T18:56:29.538Z,72.2
2017-09-22T18:57:52.544Z,72.3
2017-09-22T18:58:53.952Z,72.2
2017-09-22T19:00:15.466Z,72.7
2017-09-22T19:01:17.208Z,72.5
2017-09-22T19:02:39.202Z,72.2
2017-09-22T19:03:40.654Z,72.5
2017-09-22T19:05:02.175Z,73.0
2017-09-22T19:06:03.580Z,73.3
2017-09-22T19:07:25.082Z,74.2
2017-09-22T19:08:26.486Z,73.8
2017-09-22T19:09:48.501Z,74.3
2017-09-22T19:10:49.902Z,74.5
2017-09-22T19:12:11.402Z,74.6
2017-09-22T19:13:12.808Z,74.8
2017-09-22T19:14:34.827Z,74.7
2017-09-22T19:15:36.238Z,74.7
2017-09-22T19:16:57.733Z,74.8
2017-09-22T19:17:59.138Z,75.4
2017-09-22T19:19:21.169Z,75.0
2017-09-22T19:20:22.576Z,75.4
2017-09-22T19:21:44.079Z,75.4
2017-09-22T19:22:45.507Z,75.6
2017-09-22T19:24:07.007Z,75.4
2017-09-22T19:25:08.440Z,76.0
2017-09-22T19:26:29.960Z,76.7
2017-09-22T19:27:31.365Z,76.5
2017-09-22T19:28:52.865Z,76.6
2017-09-22T19:29:54.274Z,76.9
2017-09-22T19:31:15.792Z,76.7
2017-09-22T19:32:17.196Z,76.5
2017-09-22T19:33:38.699Z,76.7
2017-09-22T19:34:40.102Z,76.8
2017-09-22T19:36:01.619Z,76.8
2017-09-22T19:37:03.024Z,76.3
2017-09-22T19:38:24.525Z,76.4
2017-09-22T19:39:25.929Z,76.6
2017-09-22T19:40:48.445Z,76.4
2017-09-22T19:41:49.864Z,76.8
2017-09-22T19:43:11.855Z,76.5
2017-09-22T19:44:13.258Z,76.7
2017-09-22T19:45:34.771Z,76.8
2017-09-22T19:46:36.177Z,76.4
2017-09-22T19:47:57.676Z,76.7
2017-09-22T19:48:59.079Z,76.8
2017-09-22T19:50:20.599Z,76.8
2017-09-22T19:51:22.006Z,76.8
2017-09-22T19:52:43.504Z,76.6
2017-09-22T19:53:44.908Z,77.0
2017-09-22T19:55:06.425Z,76.9
2017-09-22T19:56:07.832Z,77.0
2017-09-22T19:57:29.333Z,77.0
2017-09-22T19:58:30.736Z,77.1
2017-09-22T19:59:52.239Z,77.0
2017-09-22T20:00:53.643Z,77.0
2017-09-22T20:02:15.163Z,76.7
2017-09-22T20:03:16.574Z,76.7
2017-09-22T20:04:38.076Z,76.6
2017-09-22T20:05:39.475Z,76.7
2017-09-22T20:07:00.995Z,76.3
2017-09-22T20:08:02.400Z,76.4
2017-09-22T20:09:23.898Z,76.3
2017-09-22T20:10:25.299Z,76.1
2017-09-22T20:11:46.819Z,76.6
2017-09-22T20:12:48.226Z,76.6
2017-09-22T20:14:10.215Z,76.7
2017-09-22T20:15:11.621Z,76.7
2017-09-22T20:16:33.138Z,76.3
2017-09-22T20:17:34.547Z,76.8
2017-09-22T20:18:56.044Z,76.3
2017-09-22T20:19:57.449Z,76.8